createdAt,value
2019-04-30T00:00:06.155Z,99009.00
2019-04-30T00:01:07.441Z,99007.00
2019-04-30T00:02:05.829Z,99007.00
2019-04-30T00:03:06.610Z,99007.00
2019-04-30T00:04:05.736Z,99005.00
2019-04-30T00:05:05.497Z,99003.00
2019-04-30T00:06:07.235Z,99001.00
2019-04-30T00:07:05.675Z,98999.00
2019-04-30T00:08:05.841Z,98997.00
2019-04-30T00:09:05.363Z,98989.00
2019-04-30T00:10:06.131Z,98987.00
2019-04-30T00:11:05.383Z,98981.00
2019-04-30T00:12:05.619Z,98979.00
2019-04-30T00:13:06.109Z,98979.00
2019-04-30T00:14:05.648Z,98979.00
2019-04-30T00:15:06.202Z,98979.00
2019-04-30T00:16:05.319Z,98979.00
2019-04-30T00:17:06.350Z,98979.00
2019-04-30T00:18:05.505Z,98979.00
2019-04-30T00:19:06.187Z,98979.00
2019-04-30T00:20:05.298Z,98981.00
2019-04-30T00:21:05.517Z,98979.00
2019-04-30T00:22:05.730Z,98981.00
2019-04-30T00:23:05.194Z,98979.00
2019-04-30T00:24:06.221Z,98981.00
2019-04-30T00:25:05.562Z,98981.00
2019-04-30T00:26:09.983Z,98981.00
2019-04-30T00:27:05.530Z,98979.00
2019-04-30T00:28:08.479Z,98977.00
2019-04-30T00:29:05.109Z,98977.00
2019-04-30T00:30:07.696Z,98979.00
2019-04-30T00:31:05.504Z,98975.00
2019-04-30T00:32:07.785Z,98977.00
2019-04-30T00:33:05.814Z,98977.00
2019-04-30T00:34:05.077Z,98975.00
2019-04-30T00:35:04.465Z,98975.00
2019-04-30T00:36:04.981Z,98977.00
2019-04-30T00:37:07.260Z,98979.00
2019-04-30T00:38:05.418Z,98979.00
2019-04-30T00:39:07.118Z,98979.00
2019-04-30T00:40:05.621Z,98977.00
2019-04-30T00:41:06.839Z,98977.00
2019-04-30T00:42:05.380Z,98977.00
2019-04-30T00:43:07.942Z,98979.00
2019-04-30T00:44:05.376Z,98979.00
2019-04-30T00:45:09.495Z,98979.00
2019-04-30T00:46:05.333Z,98981.00
2019-04-30T00:47:07.879Z,98981.00
2019-04-30T00:48:06.004Z,98981.00
2019-04-30T00:49:09.801Z,98981.00
2019-04-30T00:50:05.338Z,98981.00
2019-04-30T00:51:08.923Z,98979.00
2019-04-30T00:52:05.286Z,98979.00
2019-04-30T00:53:05.957Z,98979.00
2019-04-30T00:54:05.709Z,98977.00
2019-04-30T00:55:05.556Z,98977.00
2019-04-30T00:56:05.687Z,98977.00
2019-04-30T00:57:07.507Z,98975.00
2019-04-30T00:58:05.911Z,98977.00
2019-04-30T00:59:07.096Z,98975.00
2019-04-30T01:00:05.215Z,98975.00
2019-04-30T01:01:08.007Z,98975.00
2019-04-30T01:02:05.958Z,98975.00
2019-04-30T01:03:05.918Z,98975.00
2019-04-30T01:04:05.039Z,98975.00
2019-04-30T01:05:06.041Z,98977.00
2019-04-30T01:06:05.398Z,98975.00
2019-04-30T01:07:05.213Z,98973.00
2019-04-30T01:08:04.984Z,98971.00
2019-04-30T01:09:05.561Z,98971.00
2019-04-30T01:10:05.108Z,98971.00
2019-04-30T01:11:09.428Z,98971.00
2019-04-30T01:12:05.514Z,98971.00
2019-04-30T01:13:08.008Z,98969.00
2019-04-30T01:14:05.043Z,98967.00
2019-04-30T01:15:06.417Z,98966.00
2019-04-30T01:16:05.015Z,98964.00
2019-04-30T01:17:08.136Z,98964.00
2019-04-30T01:18:04.995Z,98962.00
2019-04-30T01:19:05.729Z,98962.00
2019-04-30T01:20:04.985Z,98962.00
2019-04-30T01:21:07.851Z,98962.00
2019-04-30T01:22:04.944Z,98962.00
2019-04-30T01:23:08.016Z,98960.00
2019-04-30T01:24:04.924Z,98960.00
2019-04-30T01:25:08.918Z,98958.00
2019-04-30T01:26:04.937Z,98956.00
2019-04-30T01:27:06.713Z,98956.00
2019-04-30T01:28:04.879Z,98956.00
2019-04-30T01:29:03.870Z,98956.00
2019-04-30T01:30:03.854Z,98956.00
2019-04-30T01:31:03.873Z,98954.00
2019-04-30T01:32:03.834Z,98952.00
2019-04-30T01:33:03.824Z,98952.00
2019-04-30T01:34:05.146Z,98952.00
2019-04-30T01:35:04.808Z,98952.00
2019-04-30T01:36:04.064Z,98952.00
2019-04-30T01:37:03.784Z,98950.00
2019-04-30T01:38:04.080Z,98950.00
2019-04-30T01:39:03.759Z,98950.00
2019-04-30T01:40:10.524Z,98950.00
2019-04-30T01:41:04.763Z,98948.00
2019-04-30T01:42:07.899Z,98946.00
2019-04-30T01:43:04.717Z,98946.00
2019-04-30T01:44:03.910Z,98944.00
2019-04-30T01:45:03.705Z,98940.00
2019-04-30T01:46:12.187Z,98940.00
2019-04-30T01:47:04.679Z,98938.00
2019-04-30T01:48:08.618Z,98936.00
2019-04-30T01:49:04.661Z,98934.00
2019-04-30T01:50:04.975Z,98932.00
2019-04-30T01:51:03.639Z,98932.00
2019-04-30T01:52:03.645Z,98934.00
2019-04-30T01:53:04.835Z,98932.00
2019-04-30T01:54:03.610Z,98932.00
2019-04-30T01:55:03.595Z,98934.00
2019-04-30T01:56:03.583Z,98934.00
2019-04-30T01:57:03.593Z,98936.00
2019-04-30T01:58:03.567Z,98936.00
2019-04-30T01:59:03.547Z,98934.00
2019-04-30T02:00:03.549Z,98934.00
2019-04-30T02:01:03.527Z,98934.00
2019-04-30T02:02:03.538Z,98936.00
2019-04-30T02:03:03.502Z,98934.00
2019-04-30T02:04:03.494Z,98934.00
2019-04-30T02:05:03.504Z,98934.00
2019-04-30T02:06:03.478Z,98934.00
2019-04-30T02:07:03.489Z,98934.00
2019-04-30T02:08:03.450Z,98934.00
2019-04-30T02:09:03.439Z,98934.00
2019-04-30T02:10:03.423Z,98934.00
2019-04-30T02:11:03.424Z,98934.00
2019-04-30T02:12:03.427Z,98934.00
2019-04-30T02:13:03.403Z,98934.00
2019-04-30T02:14:03.392Z,98934.00
2019-04-30T02:15:03.405Z,98934.00
2019-04-30T02:16:03.360Z,98932.00
2019-04-30T02:17:03.370Z,98934.00
2019-04-30T02:18:03.352Z,98934.00
2019-04-30T02:19:03.337Z,98934.00
2019-04-30T02:20:03.316Z,98934.00
2019-04-30T02:21:03.320Z,98934.00
2019-04-30T02:22:03.323Z,98932.00
2019-04-30T02:23:03.299Z,98934.00
2019-04-30T02:24:03.289Z,98934.00
2019-04-30T02:25:03.263Z,98934.00
2019-04-30T02:26:03.249Z,98934.00
2019-04-30T02:27:03.249Z,98936.00
2019-04-30T02:28:03.254Z,98936.00
2019-04-30T02:29:03.228Z,98936.00
2019-04-30T02:30:03.250Z,98938.00
2019-04-30T02:31:03.199Z,98938.00
2019-04-30T02:32:03.205Z,98938.00
2019-04-30T02:33:03.211Z,98936.00
2019-04-30T02:34:03.817Z,98934.00
2019-04-30T02:35:03.359Z,98934.00
2019-04-30T02:36:03.820Z,98934.00
2019-04-30T02:37:03.147Z,98936.00
2019-04-30T02:38:03.177Z,98936.00
2019-04-30T02:39:03.123Z,98934.00
2019-04-30T02:40:03.115Z,98934.00
2019-04-30T02:41:03.133Z,98932.00
2019-04-30T02:42:03.090Z,98934.00
2019-04-30T02:43:03.128Z,98932.00
2019-04-30T02:44:03.075Z,98936.00
2019-04-30T02:45:03.701Z,98936.00
2019-04-30T02:46:03.052Z,98936.00
2019-04-30T02:47:03.044Z,98938.00
2019-04-30T02:48:03.029Z,98936.00
2019-04-30T02:49:03.051Z,98936.00
2019-04-30T02:50:14.094Z,98938.00
2019-04-30T02:51:03.994Z,98936.00
2019-04-30T02:52:03.009Z,98936.00
2019-04-30T02:53:02.979Z,98936.00
2019-04-30T02:54:02.989Z,98936.00
2019-04-30T02:55:02.990Z,98936.00
2019-04-30T02:56:02.941Z,98934.00
2019-04-30T02:57:02.929Z,98932.00
2019-04-30T02:58:02.924Z,98934.00
2019-04-30T02:59:03.871Z,98930.00
2019-04-30T03:00:02.931Z,98928.00
2019-04-30T03:01:02.904Z,98928.00
2019-04-30T03:02:02.878Z,98926.00
2019-04-30T03:03:02.857Z,98928.00
2019-04-30T03:04:02.876Z,98928.00
2019-04-30T03:05:02.840Z,98928.00
2019-04-30T03:06:02.824Z,98926.00
2019-04-30T03:07:02.815Z,98924.00
2019-04-30T03:08:02.811Z,98924.00
2019-04-30T03:09:02.828Z,98924.00
2019-04-30T03:10:02.801Z,98924.00
2019-04-30T03:11:02.773Z,98922.00
2019-04-30T03:12:02.768Z,98922.00
2019-04-30T03:13:02.749Z,98920.00
2019-04-30T03:14:02.764Z,98920.00
2019-04-30T03:15:02.791Z,98920.00
2019-04-30T03:16:02.720Z,98920.00
2019-04-30T03:17:02.702Z,98920.00
2019-04-30T03:18:02.695Z,98920.00
2019-04-30T03:19:02.704Z,98920.00
2019-04-30T03:20:03.570Z,98916.00
2019-04-30T03:21:02.669Z,98916.00
2019-04-30T03:22:02.673Z,98916.00
2019-04-30T03:23:02.652Z,98916.00
2019-04-30T03:24:02.664Z,98915.00
2019-04-30T03:25:02.622Z,98913.00
2019-04-30T03:26:02.603Z,98913.00
2019-04-30T03:27:02.595Z,98913.00
2019-04-30T03:28:02.584Z,98913.00
2019-04-30T03:29:02.581Z,98913.00
2019-04-30T03:30:02.682Z,98911.00
2019-04-30T03:31:04.503Z,98911.00
2019-04-30T03:32:03.657Z,98911.00
2019-04-30T03:33:03.171Z,98911.00
2019-04-30T03:34:02.566Z,98911.00
2019-04-30T03:35:03.393Z,98911.00
2019-04-30T03:36:02.836Z,98909.00
2019-04-30T03:37:02.492Z,98911.00
2019-04-30T03:38:02.476Z,98911.00
2019-04-30T03:39:02.494Z,98911.00
2019-04-30T03:40:02.494Z,98911.00
2019-04-30T03:41:02.450Z,98911.00
2019-04-30T03:42:02.436Z,98911.00
2019-04-30T03:43:03.098Z,98909.00
2019-04-30T03:44:17.119Z,98911.00
2019-04-30T03:45:03.431Z,98911.00
2019-04-30T03:46:02.686Z,98911.00
2019-04-30T03:47:02.382Z,98911.00
2019-04-30T03:48:02.370Z,98911.00
2019-04-30T03:49:02.355Z,98909.00
2019-04-30T03:50:02.395Z,98909.00
2019-04-30T03:51:02.356Z,98909.00
2019-04-30T03:52:02.332Z,98911.00
2019-04-30T03:53:02.312Z,98907.00
2019-04-30T03:54:02.304Z,98909.00
2019-04-30T03:55:02.953Z,98911.00
2019-04-30T03:56:02.323Z,98909.00
2019-04-30T03:57:02.299Z,98911.00
2019-04-30T03:58:02.266Z,98909.00
2019-04-30T03:59:02.295Z,98909.00
2019-04-30T04:00:02.272Z,98911.00
2019-04-30T04:01:02.235Z,98911.00
2019-04-30T04:02:02.225Z,98913.00
2019-04-30T04:03:02.208Z,98913.00
2019-04-30T04:04:02.230Z,98913.00
2019-04-30T04:05:03.106Z,98913.00
2019-04-30T04:06:02.172Z,98913.00
2019-04-30T04:07:02.170Z,98913.00
2019-04-30T04:08:02.165Z,98915.00
2019-04-30T04:09:02.138Z,98915.00
2019-04-30T04:10:02.154Z,98916.00
2019-04-30T04:11:03.103Z,98916.00
2019-04-30T04:12:02.106Z,98918.00
2019-04-30T04:13:02.110Z,98918.00
2019-04-30T04:14:02.101Z,98918.00
2019-04-30T04:15:03.936Z,98920.00
2019-04-30T04:16:02.098Z,98920.00
2019-04-30T04:17:02.064Z,98920.00
2019-04-30T04:18:02.085Z,98920.00
2019-04-30T04:19:02.737Z,98920.00
2019-04-30T04:20:02.034Z,98918.00
2019-04-30T04:21:11.321Z,98916.00
2019-04-30T04:22:04.216Z,98915.00
2019-04-30T04:23:01.997Z,98913.00
2019-04-30T04:24:01.987Z,98913.00
2019-04-30T04:25:01.973Z,98913.00
2019-04-30T04:26:01.959Z,98913.00
2019-04-30T04:27:01.991Z,98913.00
2019-04-30T04:28:01.941Z,98913.00
2019-04-30T04:29:01.928Z,98915.00
2019-04-30T04:30:01.944Z,98916.00
2019-04-30T04:31:01.913Z,98918.00
2019-04-30T04:32:01.921Z,98918.00
2019-04-30T04:33:01.886Z,98920.00
2019-04-30T04:34:01.887Z,98922.00
2019-04-30T04:35:01.873Z,98924.00
2019-04-30T04:36:01.881Z,98922.00
2019-04-30T04:37:01.874Z,98922.00
2019-04-30T04:38:01.835Z,98924.00
2019-04-30T04:39:01.816Z,98926.00
2019-04-30T04:40:01.818Z,98926.00
2019-04-30T04:41:03.091Z,98926.00
2019-04-30T04:42:01.866Z,98928.00
2019-04-30T04:43:01.777Z,98930.00
2019-04-30T04:44:01.762Z,98930.00
2019-04-30T04:45:01.768Z,98932.00
2019-04-30T04:46:01.747Z,98936.00
2019-04-30T04:47:01.773Z,98936.00
2019-04-30T04:48:01.731Z,98934.00
2019-04-30T04:49:01.718Z,98936.00
2019-04-30T04:50:01.711Z,98936.00
2019-04-30T04:51:01.686Z,98936.00
2019-04-30T04:52:01.717Z,98936.00
2019-04-30T04:53:01.678Z,98934.00
2019-04-30T04:54:03.314Z,98936.00
2019-04-30T04:55:01.675Z,98934.00
2019-04-30T04:56:01.635Z,98932.00
2019-04-30T04:57:13.213Z,98932.00
2019-04-30T04:58:02.617Z,98932.00
2019-04-30T04:59:01.608Z,98934.00
2019-04-30T05:00:07.138Z,98934.00
2019-04-30T05:01:02.592Z,98936.00
2019-04-30T05:02:01.603Z,98938.00
2019-04-30T05:03:01.567Z,98938.00
2019-04-30T05:04:01.554Z,98940.00
2019-04-30T05:05:01.551Z,98940.00
2019-04-30T05:06:02.633Z,98940.00
2019-04-30T05:07:01.550Z,98942.00
2019-04-30T05:08:01.529Z,98942.00
2019-04-30T05:09:01.670Z,98944.00
2019-04-30T05:10:01.492Z,98944.00
2019-04-30T05:11:01.505Z,98944.00
2019-04-30T05:12:01.501Z,98948.00
2019-04-30T05:13:01.495Z,98950.00
2019-04-30T05:14:01.451Z,98948.00
2019-04-30T05:15:01.430Z,98950.00
2019-04-30T05:16:01.423Z,98948.00
2019-04-30T05:17:01.406Z,98946.00
2019-04-30T05:18:01.419Z,98948.00
2019-04-30T05:19:01.396Z,98948.00
2019-04-30T05:20:01.379Z,98948.00
2019-04-30T05:21:01.363Z,98946.00
2019-04-30T05:22:01.350Z,98948.00
2019-04-30T05:23:01.379Z,98948.00
2019-04-30T05:24:01.335Z,98946.00
2019-04-30T05:25:01.333Z,98944.00
2019-04-30T05:26:01.311Z,98944.00
2019-04-30T05:27:01.308Z,98944.00
2019-04-30T05:28:01.314Z,98944.00
2019-04-30T05:29:01.281Z,98944.00
2019-04-30T05:30:01.263Z,98944.00
2019-04-30T05:31:01.264Z,98948.00
2019-04-30T05:32:01.245Z,98948.00
2019-04-30T05:33:01.263Z,98948.00
2019-04-30T05:34:01.223Z,98952.00
2019-04-30T05:35:01.223Z,98950.00
2019-04-30T05:36:01.199Z,98952.00
2019-04-30T05:37:01.191Z,98954.00
2019-04-30T05:38:01.202Z,98954.00
2019-04-30T05:39:01.193Z,98954.00
2019-04-30T05:40:01.160Z,98954.00
2019-04-30T05:41:01.148Z,98958.00
2019-04-30T05:42:01.138Z,98956.00
2019-04-30T05:43:01.154Z,98958.00
2019-04-30T05:44:01.130Z,98956.00
2019-04-30T05:45:01.101Z,98954.00
2019-04-30T05:46:01.098Z,98952.00
2019-04-30T05:47:01.077Z,98954.00
2019-04-30T05:48:01.080Z,98952.00
2019-04-30T05:49:01.097Z,98952.00
2019-04-30T05:50:01.052Z,98952.00
2019-04-30T05:51:01.040Z,98952.00
2019-04-30T05:52:01.041Z,98954.00
2019-04-30T05:53:01.120Z,98952.00
2019-04-30T05:54:01.028Z,98952.00
2019-04-30T05:55:01.003Z,98950.00
2019-04-30T05:56:03.110Z,98950.00
2019-04-30T05:57:00.989Z,98950.00
2019-04-30T05:58:01.497Z,98952.00
2019-04-30T05:59:01.016Z,98952.00
2019-04-30T06:00:00.957Z,98952.00
2019-04-30T06:01:00.947Z,98954.00
2019-04-30T06:02:00.924Z,98952.00
2019-04-30T06:03:00.920Z,98956.00
2019-04-30T06:04:00.929Z,98954.00
2019-04-30T06:05:00.883Z,98954.00
2019-04-30T06:06:00.961Z,98954.00
2019-04-30T06:07:00.879Z,98956.00
2019-04-30T06:08:00.953Z,98956.00
2019-04-30T06:09:06.768Z,98954.00
2019-04-30T06:10:01.839Z,98958.00
2019-04-30T06:11:00.825Z,98956.00
2019-04-30T06:12:00.845Z,98958.00
2019-04-30T06:13:00.799Z,98958.00
2019-04-30T06:14:00.812Z,98960.00
2019-04-30T06:15:00.811Z,98960.00
2019-04-30T06:16:00.771Z,98956.00
2019-04-30T06:17:00.764Z,98956.00
2019-04-30T06:18:10.576Z,98956.00
2019-04-30T06:19:01.768Z,98956.00
2019-04-30T06:20:00.741Z,98956.00
2019-04-30T06:21:00.717Z,98954.00
2019-04-30T06:22:07.776Z,98956.00
2019-04-30T06:23:01.698Z,98954.00
2019-04-30T06:24:00.686Z,98954.00
2019-04-30T06:25:00.704Z,98954.00
2019-04-30T06:26:09.333Z,98952.00
2019-04-30T06:27:01.645Z,98954.00
2019-04-30T06:28:00.656Z,98954.00
2019-04-30T06:29:01.463Z,98956.00
2019-04-30T06:30:00.660Z,98954.00
2019-04-30T06:31:00.625Z,98954.00
2019-04-30T06:32:00.593Z,98956.00
2019-04-30T06:33:00.579Z,98958.00
2019-04-30T06:34:00.585Z,98958.00
2019-04-30T06:35:00.588Z,98958.00
2019-04-30T06:36:00.563Z,98958.00
2019-04-30T06:37:00.555Z,98960.00
2019-04-30T06:38:00.535Z,98960.00
2019-04-30T06:39:00.522Z,98960.00
2019-04-30T06:40:00.546Z,98958.00
2019-04-30T06:41:00.506Z,98962.00
2019-04-30T06:42:06.837Z,98962.00
2019-04-30T06:43:01.478Z,98962.00
2019-04-30T06:44:00.456Z,98960.00
2019-04-30T06:45:00.541Z,98962.00
2019-04-30T06:46:01.010Z,98962.00
2019-04-30T06:47:01.256Z,98962.00
2019-04-30T06:48:00.430Z,98962.00
2019-04-30T06:49:00.400Z,98962.00
2019-04-30T06:50:01.340Z,98966.00
2019-04-30T06:51:01.683Z,98967.00
2019-04-30T06:52:00.370Z,98966.00
2019-04-30T06:53:01.588Z,98966.00
2019-04-30T06:54:00.372Z,98969.00
2019-04-30T06:55:00.562Z,98971.00
2019-04-30T06:56:00.338Z,98973.00
2019-04-30T06:57:00.337Z,98973.00
2019-04-30T06:58:12.069Z,98975.00
2019-04-30T06:59:01.286Z,98975.00
2019-04-30T07:00:00.306Z,98975.00
2019-04-30T07:01:00.300Z,98973.00
2019-04-30T07:02:00.258Z,98975.00
2019-04-30T07:03:00.249Z,98975.00
2019-04-30T07:04:01.057Z,98973.00
2019-04-30T07:05:00.230Z,98975.00
2019-04-30T07:06:00.955Z,98975.00
2019-04-30T07:07:00.216Z,98975.00
2019-04-30T07:08:05.662Z,98981.00
2019-04-30T07:09:01.190Z,98983.00
2019-04-30T07:10:01.207Z,98987.00
2019-04-30T07:11:07.412Z,98997.00
2019-04-30T07:12:01.181Z,98997.00
2019-04-30T07:13:00.144Z,99001.00
2019-04-30T07:14:00.199Z,98997.00
2019-04-30T07:15:00.127Z,98997.00
2019-04-30T07:16:00.143Z,98999.00
2019-04-30T07:17:00.158Z,99003.00
2019-04-30T07:18:00.090Z,99005.00
2019-04-30T07:19:00.074Z,99007.00
2019-04-30T07:20:00.080Z,99007.00
2019-04-30T07:21:00.069Z,99007.00
2019-04-30T07:22:00.067Z,99007.00
2019-04-30T07:24:01.037Z,99011.00
2019-04-30T07:25:00.013Z,99011.00
2019-04-30T07:26:00.052Z,99011.00
2019-04-30T07:27:02.753Z,99011.00
2019-04-30T07:27:59.988Z,99011.00
2019-04-30T07:29:02.508Z,99013.00
2019-04-30T07:29:59.957Z,99011.00
2019-04-30T07:31:10.259Z,99011.00
2019-04-30T07:32:00.956Z,99011.00
2019-04-30T07:32:59.922Z,99011.00
2019-04-30T07:33:59.917Z,99015.00
2019-04-30T07:34:59.916Z,99013.00
2019-04-30T07:36:01.739Z,99013.00
2019-04-30T07:37:11.845Z,99013.00
2019-04-30T07:38:04.847Z,99013.00
2019-04-30T07:39:00.058Z,99015.00
2019-04-30T07:39:59.840Z,99013.00
2019-04-30T07:40:59.827Z,99013.00
2019-04-30T07:42:00.017Z,99013.00
2019-04-30T07:42:59.817Z,99013.00
2019-04-30T07:43:59.796Z,99013.00
2019-04-30T07:45:00.755Z,99013.00
2019-04-30T07:45:59.883Z,99013.00
2019-04-30T07:47:02.003Z,99015.00
2019-04-30T07:47:59.754Z,99013.00
2019-04-30T07:49:00.084Z,99013.00
2019-04-30T07:50:00.797Z,99011.00
2019-04-30T07:50:59.734Z,99011.00
2019-04-30T07:52:01.458Z,99011.00
2019-04-30T07:53:05.844Z,99013.00
2019-04-30T07:54:00.690Z,99011.00
2019-04-30T07:55:00.707Z,99013.00
2019-04-30T07:55:59.665Z,99015.00
2019-04-30T07:57:00.497Z,99015.00
2019-04-30T07:57:59.645Z,99015.00
2019-04-30T07:59:00.758Z,99017.00
2019-04-30T08:00:00.565Z,99015.00
2019-04-30T08:00:59.662Z,99017.00
2019-04-30T08:02:07.377Z,99017.00
2019-04-30T08:03:00.598Z,99017.00
2019-04-30T08:03:59.579Z,99017.00
2019-04-30T08:04:59.952Z,99017.00
2019-04-30T08:06:00.027Z,99019.00
2019-04-30T08:06:59.917Z,99019.00
2019-04-30T08:08:16.705Z,99021.00
2019-04-30T08:09:01.217Z,99021.00
2019-04-30T08:09:34.154Z,99011.00
2019-04-30T08:09:59.525Z,99023.00
2019-04-30T08:10:59.500Z,99023.00
2019-04-30T08:11:59.551Z,99023.00
2019-04-30T08:13:08.511Z,99021.00
2019-04-30T08:14:00.790Z,99023.00
2019-04-30T08:14:59.605Z,99025.00
2019-04-30T08:15:59.728Z,99023.00
2019-04-30T08:16:59.443Z,99027.00
2019-04-30T08:18:03.517Z,99027.00
2019-04-30T08:19:00.422Z,99031.00
2019-04-30T08:19:59.397Z,99029.00
2019-04-30T08:21:00.971Z,99031.00
2019-04-30T08:21:59.378Z,99035.00
2019-04-30T08:23:13.005Z,99037.00
2019-04-30T08:24:01.099Z,99037.00
2019-04-30T08:24:59.347Z,99037.00
2019-04-30T08:25:59.342Z,99037.00
2019-04-30T08:27:01.156Z,99037.00
2019-04-30T08:27:59.340Z,99037.00
2019-04-30T08:28:59.871Z,99037.00
2019-04-30T08:29:59.330Z,99039.00
2019-04-30T08:30:59.277Z,99037.00
2019-04-30T08:31:59.462Z,99039.00
2019-04-30T08:32:59.681Z,99040.00
2019-04-30T08:33:59.317Z,99040.00
2019-04-30T08:35:01.137Z,99042.00
2019-04-30T08:36:01.001Z,99040.00
2019-04-30T08:36:59.511Z,99039.00
2019-04-30T08:37:59.225Z,99039.00
2019-04-30T08:38:59.704Z,99040.00
2019-04-30T08:40:00.215Z,99039.00
2019-04-30T08:41:00.843Z,99037.00
2019-04-30T08:42:00.018Z,99039.00
2019-04-30T08:42:59.564Z,99039.00
2019-04-30T08:43:59.833Z,99039.00
2019-04-30T08:44:59.137Z,99039.00
2019-04-30T08:45:59.545Z,99039.00
2019-04-30T08:46:59.177Z,99037.00
2019-04-30T08:47:59.151Z,99039.00
2019-04-30T08:48:59.107Z,99040.00
2019-04-30T08:50:02.365Z,99040.00
2019-04-30T08:50:59.594Z,99039.00
2019-04-30T08:51:59.052Z,99040.00
2019-04-30T08:53:00.039Z,99040.00
2019-04-30T08:53:59.038Z,99042.00
2019-04-30T08:55:12.999Z,99042.00
2019-04-30T08:56:00.007Z,99040.00
2019-04-30T08:56:59.530Z,99040.00
2019-04-30T08:58:09.369Z,99040.00
2019-04-30T08:59:00.010Z,99040.00
2019-04-30T08:59:58.954Z,99040.00
2019-04-30T09:00:58.945Z,99042.00
2019-04-30T09:02:12.541Z,99044.00
2019-04-30T09:02:59.961Z,99044.00
2019-04-30T09:03:59.713Z,99046.00
2019-04-30T09:05:00.523Z,99044.00
2019-04-30T09:05:59.039Z,99046.00
2019-04-30T09:06:59.959Z,99044.00
2019-04-30T09:07:59.816Z,99046.00
2019-04-30T09:08:59.321Z,99046.00
2019-04-30T09:10:01.219Z,99046.00
2019-04-30T09:10:59.575Z,99048.00
2019-04-30T09:11:59.305Z,99046.00
2019-04-30T09:12:59.771Z,99046.00
2019-04-30T09:13:58.830Z,99046.00
2019-04-30T09:14:59.174Z,99048.00
2019-04-30T09:15:59.378Z,99048.00
2019-04-30T09:16:59.612Z,99052.00
2019-04-30T09:18:03.840Z,99054.00
2019-04-30T09:18:59.773Z,99054.00
2019-04-30T09:19:59.026Z,99054.00
2019-04-30T09:21:05.952Z,99056.00
2019-04-30T09:21:59.717Z,99054.00
2019-04-30T09:22:59.554Z,99056.00
2019-04-30T09:23:59.438Z,99056.00
2019-04-30T09:24:59.237Z,99056.00
2019-04-30T09:25:58.702Z,99056.00
2019-04-30T09:26:59.143Z,99056.00
2019-04-30T09:27:58.936Z,99054.00
2019-04-30T09:28:59.294Z,99056.00
2019-04-30T09:29:58.851Z,99056.00
2019-04-30T09:30:58.807Z,99056.00
2019-04-30T09:31:59.401Z,99058.00
2019-04-30T09:32:59.491Z,99058.00
2019-04-30T09:34:00.827Z,99058.00
2019-04-30T09:34:58.810Z,99056.00
2019-04-30T09:35:59.524Z,99058.00
2019-04-30T09:36:59.021Z,99058.00
2019-04-30T09:38:01.423Z,99060.00
2019-04-30T09:39:01.338Z,99058.00
2019-04-30T09:39:59.200Z,99058.00
2019-04-30T09:40:59.401Z,99060.00
2019-04-30T09:41:59.563Z,99058.00
2019-04-30T09:42:58.805Z,99056.00
2019-04-30T09:43:59.749Z,99054.00
2019-04-30T09:44:59.618Z,99056.00
2019-04-30T09:45:59.300Z,99054.00
2019-04-30T09:46:58.904Z,99054.00
2019-04-30T09:47:59.272Z,99052.00
2019-04-30T09:48:59.769Z,99052.00
2019-04-30T09:49:59.589Z,99052.00
2019-04-30T09:51:00.473Z,99052.00
2019-04-30T09:51:59.367Z,99052.00
2019-04-30T09:53:00.316Z,99052.00
2019-04-30T09:54:00.533Z,99052.00
2019-04-30T09:54:59.445Z,99048.00
2019-04-30T09:55:59.603Z,99046.00
2019-04-30T09:56:59.015Z,99048.00
2019-04-30T09:57:58.859Z,99046.00
2019-04-30T09:58:59.255Z,99042.00
2019-04-30T09:59:58.329Z,99042.00
2019-04-30T10:00:59.367Z,99042.00
2019-04-30T10:01:58.284Z,99039.00
2019-04-30T10:02:59.942Z,99042.00
2019-04-30T10:04:00.282Z,99040.00
2019-04-30T10:04:58.676Z,99039.00
2019-04-30T10:05:59.089Z,99039.00
2019-04-30T10:06:59.588Z,99037.00
2019-04-30T10:07:59.407Z,99039.00
2019-04-30T10:08:59.676Z,99037.00
2019-04-30T10:09:59.099Z,99037.00
2019-04-30T10:10:58.801Z,99035.00
2019-04-30T10:11:59.587Z,99037.00
2019-04-30T10:12:59.285Z,99039.00
2019-04-30T10:13:58.146Z,99039.00
2019-04-30T10:14:59.263Z,99039.00
2019-04-30T10:15:58.556Z,99037.00
2019-04-30T10:16:59.519Z,99037.00
2019-04-30T10:17:58.093Z,99033.00
2019-04-30T10:18:59.245Z,99031.00
2019-04-30T10:19:58.082Z,99031.00
2019-04-30T10:20:58.887Z,99033.00
2019-04-30T10:21:58.963Z,99031.00
2019-04-30T10:22:59.619Z,99029.00
2019-04-30T10:24:10.438Z,99029.00
2019-04-30T10:24:59.671Z,99029.00
2019-04-30T10:25:58.051Z,99027.00
2019-04-30T10:26:58.006Z,99027.00
2019-04-30T10:27:59.786Z,99025.00
2019-04-30T10:28:57.992Z,99025.00
2019-04-30T10:29:59.384Z,99023.00
2019-04-30T10:30:57.966Z,99023.00
2019-04-30T10:31:58.766Z,99021.00
2019-04-30T10:33:28.563Z,990.29
2019-04-30T10:34:26.378Z,990.25
2019-04-30T10:35:28.460Z,990.21
2019-04-30T10:36:26.370Z,990.23
2019-04-30T10:37:26.329Z,990.21
2019-04-30T10:38:26.333Z,990.23
2019-04-30T10:39:26.297Z,990.25
2019-04-30T10:40:26.306Z,990.21
2019-04-30T10:41:26.302Z,990.21
2019-04-30T10:42:26.252Z,990.23
2019-04-30T10:43:26.230Z,990.21
2019-04-30T10:44:26.209Z,990.19
2019-04-30T10:45:26.177Z,990.19
2019-04-30T10:46:26.185Z,990.21
2019-04-30T10:47:26.175Z,990.19
2019-04-30T10:48:26.124Z,990.15
2019-04-30T10:49:26.163Z,990.17
2019-04-30T10:50:26.101Z,990.17
2019-04-30T10:51:26.072Z,990.19
2019-04-30T10:52:26.071Z,990.15
2019-04-30T10:53:26.042Z,990.17
2019-04-30T10:54:26.542Z,990.21
2019-04-30T10:55:26.002Z,990.19
2019-04-30T10:56:26.749Z,990.27
2019-04-30T10:57:28.393Z,990.25
2019-04-30T10:58:26.696Z,990.21
2019-04-30T10:59:26.675Z,990.19
2019-04-30T11:00:28.296Z,990.17
2019-04-30T11:01:26.651Z,990.15
2019-04-30T11:02:28.737Z,990.17
2019-04-30T11:03:26.622Z,990.19
2019-04-30T11:04:26.611Z,990.19
2019-04-30T11:05:26.602Z,990.19
2019-04-30T11:06:26.586Z,990.17
2019-04-30T11:07:28.692Z,990.17
2019-04-30T11:08:26.569Z,990.19
2019-04-30T11:09:26.553Z,990.19
2019-04-30T11:10:26.545Z,990.21
2019-04-30T11:11:28.294Z,990.21
2019-04-30T11:12:26.542Z,990.19
2019-04-30T11:13:26.532Z,990.23
2019-04-30T11:14:26.510Z,990.19
2019-04-30T11:15:26.523Z,990.21
2019-04-30T11:16:26.488Z,990.19
2019-04-30T11:17:26.733Z,990.17
2019-04-30T11:18:26.633Z,990.17
2019-04-30T11:19:26.627Z,990.19
2019-04-30T11:20:26.683Z,990.17
2019-04-30T11:21:26.617Z,990.17
2019-04-30T11:22:26.617Z,990.13
2019-04-30T11:23:26.530Z,990.15
2019-04-30T11:24:35.905Z,990.15
2019-04-30T11:25:28.693Z,990.15
2019-04-30T11:26:26.685Z,990.17
2019-04-30T11:27:26.900Z,990.13
2019-04-30T11:28:27.087Z,990.13
2019-04-30T11:29:26.580Z,990.09
2019-04-30T11:30:26.669Z,990.09
2019-04-30T11:31:26.552Z,990.07
2019-04-30T11:32:26.451Z,990.05
2019-04-30T11:33:26.487Z,990.05
2019-04-30T11:34:28.156Z,990.01
2019-04-30T11:35:26.288Z,989.99
2019-04-30T11:36:26.302Z,989.99
2019-04-30T11:37:26.330Z,989.97
2019-04-30T11:38:26.263Z,989.99
2019-04-30T11:39:26.245Z,989.97
2019-04-30T11:40:34.281Z,989.89
2019-04-30T11:41:30.880Z,989.85
2019-04-30T11:42:27.235Z,989.83
2019-04-30T11:43:26.199Z,989.79
2019-04-30T11:44:30.893Z,989.77
2019-04-30T11:45:27.192Z,989.77
2019-04-30T11:46:26.175Z,989.75
2019-04-30T11:47:26.166Z,989.73
2019-04-30T11:48:26.180Z,989.71